Terminal Aerodrome Forecast
Issued by NWS Bismarck, ND

Home | Current Version | Previous Version | Graphics & Text | Print | Product List | Glossary On
Versions: 1 2 3 4 5 6 7 8 9 10 11 12 13 14 15 16 17 18 19 20 21
000
FTUS43 KBIS 192100 AAD
TAFISN
TAF AMD
KISN 192109Z 1921/2018 09003KT 4SM BR OVC002
     FM200200 17003KT 2SM BR SCT100=

USA.gov is the U.S. government's official web portal to all federal, state and local government web resources and services.